sensor_id;sensor_type;location;lat;lon;timestamp;pressure;altitude;pressure_sealevel;temperature;humidity
82035;BME280;71599;49.892;18.914;2023-08-24T00:02:12;98938.78;;;16.71;74.45
82035;BME280;71599;49.892;18.914;2023-08-24T00:07:12;98937.59;;;16.68;74.39
82035;BME280;71599;49.892;18.914;2023-08-24T00:12:13;98938.00;;;16.63;74.95
82035;BME280;71599;49.892;18.914;2023-08-24T00:17:16;98943.13;;;16.54;75.40
82035;BME280;71599;49.892;18.914;2023-08-24T00:22:17;98944.31;;;16.53;75.15
82035;BME280;71599;49.892;18.914;2023-08-24T00:27:18;98948.22;;;16.48;75.23
82035;BME280;71599;49.892;18.914;2023-08-24T00:32:22;98949.81;;;16.49;75.23
82035;BME280;71599;49.892;18.914;2023-08-24T00:37:23;98952.56;;;16.39;75.95
82035;BME280;71599;49.892;18.914;2023-08-24T00:42:24;98948.22;;;16.31;76.27
82035;BME280;71599;49.892;18.914;2023-08-24T00:47:27;98946.66;;;16.33;75.37
82035;BME280;71599;49.892;18.914;2023-08-24T00:52:29;98947.03;;;16.24;75.81
82035;BME280;71599;49.892;18.914;2023-08-24T00:57:32;98941.91;;;16.19;75.95
82035;BME280;71599;49.892;18.914;2023-08-24T01:02:34;98943.09;;;16.18;75.86
82035;BME280;71599;49.892;18.914;2023-08-24T01:07:38;98944.28;;;16.10;75.91
82035;BME280;71599;49.892;18.914;2023-08-24T01:12:50;98946.25;;;16.13;76.35
82035;BME280;71599;49.892;18.914;2023-08-24T01:17:58;98941.50;;;16.03;75.73
82035;BME280;71599;49.892;18.914;2023-08-24T01:23:09;98942.69;;;15.92;75.57
82035;BME280;71599;49.892;18.914;2023-08-24T01:28:16;98955.25;;;15.82;75.71
82035;BME280;71599;49.892;18.914;2023-08-24T01:33:18;98954.44;;;15.81;75.85
82035;BME280;71599;49.892;18.914;2023-08-24T01:38:19;98963.13;;;15.80;76.01
82035;BME280;71599;49.892;18.914;2023-08-24T01:43:26;98961.13;;;15.77;76.33
82035;BME280;71599;49.892;18.914;2023-08-24T01:48:30;98967.44;;;15.74;75.72
82035;BME280;71599;49.892;18.914;2023-08-24T01:53:33;98964.66;;;15.67;75.56
82035;BME280;71599;49.892;18.914;2023-08-24T01:58:35;98963.88;;;15.66;75.87
82035;BME280;71599;49.892;18.914;2023-08-24T02:03:36;98966.63;;;15.66;75.29
82035;BME280;71599;49.892;18.914;2023-08-24T02:08:37;98954.41;;;15.64;75.66
82035;BME280;71599;49.892;18.914;2023-08-24T02:13:39;98957.50;;;15.59;76.17
82035;BME280;71599;49.892;18.914;2023-08-24T02:18:40;98968.09;;;15.53;76.22
82035;BME280;71599;49.892;18.914;2023-08-24T02:23:41;98952.72;;;15.38;76.52
82035;BME280;71599;49.892;18.914;2023-08-24T02:28:44;98949.50;;;15.25;77.14
82035;BME280;71599;49.892;18.914;2023-08-24T02:33:45;98944.75;;;15.22;76.95
82035;BME280;71599;49.892;18.914;2023-08-24T02:38:46;98962.13;;;15.30;76.36
82035;BME280;71599;49.892;18.914;2023-08-24T02:43:49;98960.94;;;15.31;76.18
82035;BME280;71599;49.892;18.914;2023-08-24T02:48:50;98952.66;;;15.27;76.08
82035;BME280;71599;49.892;18.914;2023-08-24T02:53:51;98950.66;;;15.21;75.80
82035;BME280;71599;49.892;18.914;2023-08-24T02:58:53;98947.09;;;15.17;76.29
82035;BME280;71599;49.892;18.914;2023-08-24T03:03:54;98954.56;;;15.16;75.96
82035;BME280;71599;49.892;18.914;2023-08-24T03:08:55;98960.84;;;15.13;75.79
82035;BME280;71599;49.892;18.914;2023-08-24T03:13:57;98958.44;;;15.04;76.55
82035;BME280;71599;49.892;18.914;2023-08-24T03:18:58;98965.47;;;14.95;76.04
82035;BME280;71599;49.892;18.914;2023-08-24T03:23:59;98961.94;;;14.94;76.32
82035;BME280;71599;49.892;18.914;2023-08-24T03:29:01;98959.53;;;14.89;76.50
82035;BME280;71599;49.892;18.914;2023-08-24T03:34:02;98955.59;;;14.87;76.01
82035;BME280;71599;49.892;18.914;2023-08-24T03:39:03;98950.41;;;14.78;75.85
82035;BME280;71599;49.892;18.914;2023-08-24T03:44:05;98957.50;;;14.79;75.81
82035;BME280;71599;49.892;18.914;2023-08-24T03:49:06;98955.84;;;14.71;75.86
82035;BME280;71599;49.892;18.914;2023-08-24T03:54:07;98951.94;;;14.69;76.05
82035;BME280;71599;49.892;18.914;2023-08-24T03:59:10;98957.78;;;14.63;76.13
82035;BME280;71599;49.892;18.914;2023-08-24T04:04:11;98964.09;;;14.68;75.82
82035;BME280;71599;49.892;18.914;2023-08-24T04:09:12;98968.84;;;14.71;75.68
82035;BME280;71599;49.892;18.914;2023-08-24T04:14:14;98956.63;;;14.68;75.31
82035;BME280;71599;49.892;18.914;2023-08-24T04:19:15;98967.31;;;14.77;75.27
82035;BME280;71599;49.892;18.914;2023-08-24T04:24:16;98971.28;;;14.83;75.04
82035;BME280;71599;49.892;18.914;2023-08-24T04:29:18;98970.94;;;14.88;75.20
82035;BME280;71599;49.892;18.914;2023-08-24T04:34:19;98968.56;;;14.90;75.57
82035;BME280;71599;49.892;18.914;2023-08-24T04:39:20;98966.28;;;14.99;75.63
82035;BME280;71599;49.892;18.914;2023-08-24T04:44:22;98966.31;;;15.10;75.49
82035;BME280;71599;49.892;18.914;2023-08-24T04:49:23;98970.34;;;15.23;75.77
82035;BME280;71599;49.892;18.914;2023-08-24T04:54:24;98962.94;;;15.37;75.34
82035;BME280;71599;49.892;18.914;2023-08-24T04:59:27;98962.66;;;15.60;75.39
82035;BME280;71599;49.892;18.914;2023-08-24T05:04:27;98951.00;;;16.16;74.56
82035;BME280;71599;49.892;18.914;2023-08-24T05:09:28;98952.00;;;17.39;71.84
82035;BME280;71599;49.892;18.914;2023-08-24T05:14:31;98950.25;;;18.88;67.15
82035;BME280;71599;49.892;18.914;2023-08-24T05:19:32;98960.81;;;20.29;63.39
82035;BME280;71599;49.892;18.914;2023-08-24T05:24:33;98954.97;;;21.75;59.23
82035;BME280;71599;49.892;18.914;2023-08-24T05:29:36;98955.38;;;22.94;54.95
82035;BME280;71599;49.892;18.914;2023-08-24T05:34:37;98964.50;;;23.94;55.43
82035;BME280;71599;49.892;18.914;2023-08-24T05:39:38;98963.13;;;24.87;52.43
82035;BME280;71599;49.892;18.914;2023-08-24T05:44:40;98962.22;;;24.90;51.29
82035;BME280;71599;49.892;18.914;2023-08-24T05:49:41;98965.25;;;24.83;52.31
82035;BME280;71599;49.892;18.914;2023-08-24T05:54:42;98962.81;;;25.20;51.69
82035;BME280;71599;49.892;18.914;2023-08-24T05:59:44;98960.66;;;25.89;48.95
82035;BME280;71599;49.892;18.914;2023-08-24T06:04:45;98961.19;;;26.77;48.10
82035;BME280;71599;49.892;18.914;2023-08-24T06:09:46;98966.03;;;27.31;46.78
82035;BME280;71599;49.892;18.914;2023-08-24T06:14:48;98958.53;;;27.73;45.46
82035;BME280;71599;49.892;18.914;2023-08-24T06:19:49;98961.56;;;28.12;46.07
82035;BME280;71599;49.892;18.914;2023-08-24T06:24:50;98954.44;;;28.68;46.09
82035;BME280;71599;49.892;18.914;2023-08-24T06:29:53;98960.16;;;29.21;40.81
82035;BME280;71599;49.892;18.914;2023-08-24T06:34:54;98961.78;;;29.51;41.54
82035;BME280;71599;49.892;18.914;2023-08-24T06:39:55;98970.13;;;29.46;41.35
82035;BME280;71599;49.892;18.914;2023-08-24T06:44:57;98965.47;;;29.57;41.30
82035;BME280;71599;49.892;18.914;2023-08-24T06:49:58;98965.13;;;29.64;39.78
82035;BME280;71599;49.892;18.914;2023-08-24T06:55:00;98969.19;;;29.93;41.10
82035;BME280;71599;49.892;18.914;2023-08-24T07:00:02;98969.09;;;29.72;38.85
82035;BME280;71599;49.892;18.914;2023-08-24T07:05:04;98964.63;;;29.66;39.76
82035;BME280;71599;49.892;18.914;2023-08-24T07:10:06;98968.22;;;29.66;39.07
82035;BME280;71599;49.892;18.914;2023-08-24T07:15:10;98969.78;;;29.67;37.99
82035;BME280;71599;49.892;18.914;2023-08-24T07:20:11;98972.50;;;29.76;36.59
82035;BME280;71599;49.892;18.914;2023-08-24T07:25:12;98977.09;;;29.50;40.29
82035;BME280;71599;49.892;18.914;2023-08-24T07:30:14;98976.75;;;29.72;37.04
82035;BME280;71599;49.892;18.914;2023-08-24T07:35:15;98973.47;;;29.73;38.95
82035;BME280;71599;49.892;18.914;2023-08-24T07:40:16;98977.50;;;29.58;37.70
82035;BME280;71599;49.892;18.914;2023-08-24T07:45:19;98982.25;;;28.89;36.42
82035;BME280;71599;49.892;18.914;2023-08-24T07:50:20;98980.66;;;29.21;37.55
82035;BME280;71599;49.892;18.914;2023-08-24T07:55:21;98984.63;;;29.29;38.23
82035;BME280;71599;49.892;18.914;2023-08-24T08:00:24;98971.22;;;29.24;38.54
82035;BME280;71599;49.892;18.914;2023-08-24T08:05:25;98977.69;;;29.54;38.86
82035;BME280;71599;49.892;18.914;2023-08-24T08:10:26;98971.78;;;28.66;37.12
82035;BME280;71599;49.892;18.914;2023-08-24T08:15:28;98968.78;;;28.93;39.15
82035;BME280;71599;49.892;18.914;2023-08-24T08:20:29;98971.22;;;29.00;38.24
82035;BME280;71599;49.892;18.914;2023-08-24T08:25:30;98979.19;;;29.26;38.50
82035;BME280;71599;49.892;18.914;2023-08-24T08:30:33;98984.19;;;29.46;36.96
82035;BME280;71599;49.892;18.914;2023-08-24T08:35:34;98972.78;;;29.25;37.76
82035;BME280;71599;49.892;18.914;2023-08-24T08:40:37;98976.50;;;29.31;37.81
82035;BME280;71599;49.892;18.914;2023-08-24T08:45:39;98973.78;;;29.37;35.47
82035;BME280;71599;49.892;18.914;2023-08-24T08:50:40;98968.03;;;29.17;34.77
82035;BME280;71599;49.892;18.914;2023-08-24T08:55:41;98971.34;;;28.82;35.58
82035;BME280;71599;49.892;18.914;2023-08-24T09:00:46;98971.84;;;28.81;36.57
82035;BME280;71599;49.892;18.914;2023-08-24T09:05:47;98980.19;;;29.37;37.02
82035;BME280;71599;49.892;18.914;2023-08-24T09:10:48;98966.56;;;28.41;35.08
82035;BME280;71599;49.892;18.914;2023-08-24T09:15:52;98964.47;;;28.83;34.49
82035;BME280;71599;49.892;18.914;2023-08-24T09:20:53;98971.91;;;28.95;34.60
82035;BME280;71599;49.892;18.914;2023-08-24T09:25:54;98962.41;;;29.17;35.08
82035;BME280;71599;49.892;18.914;2023-08-24T09:31:00;98961.53;;;29.25;32.16
82035;BME280;71599;49.892;18.914;2023-08-24T09:36:01;98956.63;;;29.50;34.51
82035;BME280;71599;49.892;18.914;2023-08-24T09:41:02;98948.28;;;29.99;33.92
82035;BME280;71599;49.892;18.914;2023-08-24T09:46:04;98938.88;;;30.17;29.15
82035;BME280;71599;49.892;18.914;2023-08-24T09:51:06;98941.69;;;30.17;32.40
82035;BME280;71599;49.892;18.914;2023-08-24T09:56:08;98941.13;;;29.83;29.12
82035;BME280;71599;49.892;18.914;2023-08-24T10:01:11;98946.34;;;29.61;28.37
82035;BME280;71599;49.892;18.914;2023-08-24T10:06:13;98942.63;;;29.55;30.02
82035;BME280;71599;49.892;18.914;2023-08-24T10:11:17;98929.25;;;29.79;28.01
82035;BME280;71599;49.892;18.914;2023-08-24T10:16:21;98934.69;;;30.12;28.14
82035;BME280;71599;49.892;18.914;2023-08-24T10:21:23;98933.63;;;29.95;29.62
82035;BME280;71599;49.892;18.914;2023-08-24T10:26:26;98935.94;;;30.11;30.42
82035;BME280;71599;49.892;18.914;2023-08-24T10:31:29;98933.22;;;30.17;27.39
82035;BME280;71599;49.892;18.914;2023-08-24T10:36:31;98928.78;;;29.96;30.66
82035;BME280;71599;49.892;18.914;2023-08-24T10:41:46;98921.19;;;30.16;26.00
82035;BME280;71599;49.892;18.914;2023-08-24T10:47:07;98917.31;;;30.14;24.89
82035;BME280;71599;49.892;18.914;2023-08-24T10:52:20;98911.06;;;30.25;27.40
82035;BME280;71599;49.892;18.914;2023-08-24T10:57:23;98902.22;;;30.02;28.56
82035;BME280;71599;49.892;18.914;2023-08-24T11:02:26;98910.38;;;30.15;29.07
82035;BME280;71599;49.892;18.914;2023-08-24T11:07:27;98899.38;;;30.32;27.41
82035;BME280;71599;49.892;18.914;2023-08-24T11:12:28;98896.97;;;30.10;27.39
82035;BME280;71599;49.892;18.914;2023-08-24T11:18:11;98892.59;;;29.59;27.16
82035;BME280;71599;49.892;18.914;2023-08-24T11:23:12;98885.28;;;29.82;29.18
82035;BME280;71599;49.892;18.914;2023-08-24T11:28:19;98881.88;;;30.28;28.05
82035;BME280;71599;49.892;18.914;2023-08-24T11:33:28;98871.78;;;30.21;26.70
82035;BME280;71599;49.892;18.914;2023-08-24T11:38:36;98867.28;;;30.29;26.90
82035;BME280;71599;49.892;18.914;2023-08-24T11:43:38;98864.69;;;30.11;29.92
82035;BME280;71599;49.892;18.914;2023-08-24T11:48:41;98867.13;;;29.68;26.70
82035;BME280;71599;49.892;18.914;2023-08-24T11:53:42;98854.75;;;29.80;29.76
82035;BME280;71599;49.892;18.914;2023-08-24T11:58:47;98849.13;;;29.95;27.81
82035;BME280;71599;49.892;18.914;2023-08-24T12:03:50;98854.75;;;29.07;29.63
82035;BME280;71599;49.892;18.914;2023-08-24T12:08:52;98843.44;;;28.92;29.83
82035;BME280;71599;49.892;18.914;2023-08-24T12:13:54;98858.84;;;29.21;31.35
82035;BME280;71599;49.892;18.914;2023-08-24T12:18:58;98841.28;;;29.11;31.47
82035;BME280;71599;49.892;18.914;2023-08-24T12:24:01;98844.91;;;29.41;31.17
82035;BME280;71599;49.892;18.914;2023-08-24T12:29:04;98835.75;;;29.46;31.79
82035;BME280;71599;49.892;18.914;2023-08-24T12:34:07;98835.84;;;29.37;30.54
82035;BME280;71599;49.892;18.914;2023-08-24T12:39:10;98824.84;;;29.54;31.26
82035;BME280;71599;49.892;18.914;2023-08-24T12:44:11;98821.19;;;29.18;30.08
82035;BME280;71599;49.892;18.914;2023-08-24T12:49:14;98820.03;;;29.10;29.61
82035;BME280;71599;49.892;18.914;2023-08-24T12:54:15;98816.72;;;29.12;31.07
82035;BME280;71599;49.892;18.914;2023-08-24T12:59:16;98807.00;;;28.98;33.05
82035;BME280;71599;49.892;18.914;2023-08-24T13:04:19;98804.50;;;29.29;30.78
82035;BME280;71599;49.892;18.914;2023-08-24T13:09:20;98786.25;;;29.25;31.25
82035;BME280;71599;49.892;18.914;2023-08-24T13:14:21;98785.50;;;29.10;32.77
82035;BME280;71599;49.892;18.914;2023-08-24T13:19:23;98768.28;;;29.37;30.84
82035;BME280;71599;49.892;18.914;2023-08-24T13:24:24;98764.22;;;29.38;30.60
82035;BME280;71599;49.892;18.914;2023-08-24T13:29:25;98763.16;;;29.21;32.44
82035;BME280;71599;49.892;18.914;2023-08-24T13:34:28;98771.03;;;29.17;31.80
82035;BME280;71599;49.892;18.914;2023-08-24T13:39:29;98761.06;;;28.62;31.80
82035;BME280;71599;49.892;18.914;2023-08-24T13:44:30;98763.16;;;28.14;32.00
82035;BME280;71599;49.892;18.914;2023-08-24T13:49:32;98762.34;;;28.61;31.42
82035;BME280;71599;49.892;18.914;2023-08-24T13:54:34;98748.41;;;28.82;31.42
82035;BME280;71599;49.892;18.914;2023-08-24T13:59:35;98747.63;;;28.81;31.93
82035;BME280;71599;49.892;18.914;2023-08-24T14:04:37;98742.88;;;28.73;31.25
82035;BME280;71599;49.892;18.914;2023-08-24T14:09:38;98744.44;;;28.35;32.01
82035;BME280;71599;49.892;18.914;2023-08-24T14:14:39;98735.81;;;28.00;32.91
82035;BME280;71599;49.892;18.914;2023-08-24T14:19:42;98726.59;;;28.00;31.41
82035;BME280;71599;49.892;18.914;2023-08-24T14:24:44;98735.47;;;28.22;31.78
82035;BME280;71599;49.892;18.914;2023-08-24T14:29:45;98731.00;;;28.15;31.08
82035;BME280;71599;49.892;18.914;2023-08-24T14:34:48;98737.72;;;27.85;32.84
82035;BME280;71599;49.892;18.914;2023-08-24T14:39:49;98729.44;;;28.14;33.01
82035;BME280;71599;49.892;18.914;2023-08-24T14:44:50;98716.28;;;28.20;33.21
82035;BME280;71599;49.892;18.914;2023-08-24T14:49:52;98725.00;;;28.22;33.28
82035;BME280;71599;49.892;18.914;2023-08-24T14:54:53;98709.56;;;28.42;33.28
82035;BME280;71599;49.892;18.914;2023-08-24T14:59:54;98711.25;;;28.24;33.58
82035;BME280;71599;49.892;18.914;2023-08-24T15:04:56;98709.22;;;28.49;32.36
82035;BME280;71599;49.892;18.914;2023-08-24T15:09:58;98710.97;;;28.61;31.88
82035;BME280;71599;49.892;18.914;2023-08-24T15:15:00;98702.94;;;28.45;32.37
82035;BME280;71599;49.892;18.914;2023-08-24T15:20:04;98702.28;;;28.35;31.95
82035;BME280;71599;49.892;18.914;2023-08-24T15:25:06;98696.72;;;28.26;33.89
82035;BME280;71599;49.892;18.914;2023-08-24T15:30:07;98681.78;;;28.20;32.20
82035;BME280;71599;49.892;18.914;2023-08-24T15:35:10;98679.06;;;28.25;31.99
82035;BME280;71599;49.892;18.914;2023-08-24T15:40:11;98679.97;;;28.32;33.14
82035;BME280;71599;49.892;18.914;2023-08-24T15:45:12;98658.63;;;28.10;33.32
82035;BME280;71599;49.892;18.914;2023-08-24T15:50:15;98663.16;;;28.08;35.31
82035;BME280;71599;49.892;18.914;2023-08-24T15:55:16;98666.22;;;27.71;33.80
82035;BME280;71599;49.892;18.914;2023-08-24T16:00:17;98663.25;;;27.51;33.28
82035;BME280;71599;49.892;18.914;2023-08-24T16:05:20;98664.56;;;27.32;33.76
82035;BME280;71599;49.892;18.914;2023-08-24T16:10:21;98659.50;;;27.12;34.76
82035;BME280;71599;49.892;18.914;2023-08-24T16:15:22;98657.31;;;27.16;35.58
82035;BME280;71599;49.892;18.914;2023-08-24T16:20:24;98632.50;;;27.24;35.08
82035;BME280;71599;49.892;18.914;2023-08-24T16:25:25;98628.91;;;27.23;34.81
82035;BME280;71599;49.892;18.914;2023-08-24T16:30:27;98626.97;;;27.05;35.13
82035;BME280;71599;49.892;18.914;2023-08-24T16:35:29;98624.44;;;26.84;36.70
82035;BME280;71599;49.892;18.914;2023-08-24T16:40:33;98628.53;;;26.55;36.59
82035;BME280;71599;49.892;18.914;2023-08-24T16:45:34;98632.78;;;26.42;37.54
82035;BME280;71599;49.892;18.914;2023-08-24T16:50:37;98631.06;;;26.35;37.29
82035;BME280;71599;49.892;18.914;2023-08-24T16:55:38;98622.38;;;26.15;39.11
82035;BME280;71599;49.892;18.914;2023-08-24T17:00:39;98613.03;;;25.91;41.14
82035;BME280;71599;49.892;18.914;2023-08-24T17:05:42;98609.28;;;25.66;41.65
82035;BME280;71599;49.892;18.914;2023-08-24T17:10:43;98614.69;;;25.42;42.12
82035;BME280;71599;49.892;18.914;2023-08-24T17:15:48;98637.81;;;25.25;45.40
82035;BME280;71599;49.892;18.914;2023-08-24T17:20:50;98622.88;;;24.88;47.63
82035;BME280;71599;49.892;18.914;2023-08-24T17:25:51;98616.06;;;24.58;47.83
82035;BME280;71599;49.892;18.914;2023-08-24T17:30:52;98613.28;;;24.36;47.75
82035;BME280;71599;49.892;18.914;2023-08-24T17:35:55;98611.28;;;24.15;49.12
82035;BME280;71599;49.892;18.914;2023-08-24T17:41:00;98610.28;;;23.87;49.94
82035;BME280;71599;49.892;18.914;2023-08-24T17:46:01;98614.13;;;23.68;48.98
82035;BME280;71599;49.892;18.914;2023-08-24T17:51:04;98612.22;;;23.30;48.74
82035;BME280;71599;49.892;18.914;2023-08-24T17:56:05;98642.78;;;23.09;49.51
82035;BME280;71599;49.892;18.914;2023-08-24T18:01:06;98647.38;;;22.90;49.76
82035;BME280;71599;49.892;18.914;2023-08-24T18:06:08;98652.22;;;22.60;51.38
82035;BME280;71599;49.892;18.914;2023-08-24T18:11:10;98664.75;;;22.40;51.59
82035;BME280;71599;49.892;18.914;2023-08-24T18:16:11;98668.53;;;22.17;51.98
82035;BME280;71599;49.892;18.914;2023-08-24T18:21:13;98672.59;;;22.00;53.34
82035;BME280;71599;49.892;18.914;2023-08-24T18:26:14;98691.34;;;21.83;52.61
82035;BME280;71599;49.892;18.914;2023-08-24T18:31:15;98691.09;;;21.61;53.17
82035;BME280;71599;49.892;18.914;2023-08-24T18:36:17;98688.81;;;21.40;53.86
82035;BME280;71599;49.892;18.914;2023-08-24T18:41:18;98673.78;;;21.21;55.03
82035;BME280;71599;49.892;18.914;2023-08-24T18:46:19;98674.09;;;21.07;55.44
82035;BME280;71599;49.892;18.914;2023-08-24T18:51:21;98650.91;;;20.97;55.73
82035;BME280;71599;49.892;18.914;2023-08-24T18:56:22;98649.59;;;20.86;55.77
82035;BME280;71599;49.892;18.914;2023-08-24T19:01:24;98652.38;;;20.66;56.92
82035;BME280;71599;49.892;18.914;2023-08-24T19:06:26;98660.03;;;20.62;56.10
82035;BME280;71599;49.892;18.914;2023-08-24T19:11:27;98652.97;;;20.57;55.94
82035;BME280;71599;49.892;18.914;2023-08-24T19:16:28;98647.91;;;20.52;56.71
82035;BME280;71599;49.892;18.914;2023-08-24T19:21:30;98649.31;;;20.44;56.61
82035;BME280;71599;49.892;18.914;2023-08-24T19:26:31;98634.13;;;20.29;57.08
82035;BME280;71599;49.892;18.914;2023-08-24T19:31:32;98636.41;;;20.14;56.71
82035;BME280;71599;49.892;18.914;2023-08-24T19:36:35;98638.97;;;20.05;58.02
82035;BME280;71599;49.892;18.914;2023-08-24T19:41:36;98635.97;;;19.96;57.78
82035;BME280;71599;49.892;18.914;2023-08-24T19:46:37;98623.06;;;19.86;57.90
82035;BME280;71599;49.892;18.914;2023-08-24T19:51:39;98640.22;;;19.81;58.45
82035;BME280;71599;49.892;18.914;2023-08-24T19:56:40;98636.78;;;19.73;57.81
82035;BME280;71599;49.892;18.914;2023-08-24T20:01:41;98631.81;;;19.65;58.44
82035;BME280;71599;49.892;18.914;2023-08-24T20:06:44;98623.31;;;19.52;59.11
82035;BME280;71599;49.892;18.914;2023-08-24T20:11:45;98629.03;;;19.41;59.07
82035;BME280;71599;49.892;18.914;2023-08-24T20:16:46;98626.03;;;19.32;58.51
82035;BME280;71599;49.892;18.914;2023-08-24T20:21:48;98628.41;;;19.30;58.64
82035;BME280;71599;49.892;18.914;2023-08-24T20:26:49;98619.78;;;19.28;58.38
82035;BME280;71599;49.892;18.914;2023-08-24T20:31:51;98628.97;;;19.22;58.41
82035;BME280;71599;49.892;18.914;2023-08-24T20:36:53;98627.03;;;19.19;57.94
82035;BME280;71599;49.892;18.914;2023-08-24T20:42:12;98627.41;;;19.21;59.06
82035;BME280;71599;49.892;18.914;2023-08-24T20:47:13;98626.25;;;19.18;57.13
82035;BME280;71599;49.892;18.914;2023-08-24T20:52:16;98620.78;;;19.11;57.41
82035;BME280;71599;49.892;18.914;2023-08-24T20:57:17;98623.94;;;19.13;57.04
82035;BME280;71599;49.892;18.914;2023-08-24T21:02:18;98626.31;;;19.11;57.37
82035;BME280;71599;49.892;18.914;2023-08-24T21:07:20;98607.41;;;19.06;57.74
82035;BME280;71599;49.892;18.914;2023-08-24T21:12:21;98610.69;;;19.01;57.59
82035;BME280;71599;49.892;18.914;2023-08-24T21:17:22;98598.28;;;18.86;58.83
82035;BME280;71599;49.892;18.914;2023-08-24T21:22:25;98595.28;;;18.73;60.34
82035;BME280;71599;49.892;18.914;2023-08-24T21:27:26;98579.66;;;18.59;60.10
82035;BME280;71599;49.892;18.914;2023-08-24T21:32:27;98578.91;;;18.55;60.00
82035;BME280;71599;49.892;18.914;2023-08-24T21:37:29;98561.69;;;18.44;61.00
82035;BME280;71599;49.892;18.914;2023-08-24T21:42:30;98565.34;;;18.38;60.47
82035;BME280;71599;49.892;18.914;2023-08-24T21:47:31;98562.31;;;18.25;60.67
82035;BME280;71599;49.892;18.914;2023-08-24T21:52:34;98565.56;;;18.20;61.03
82035;BME280;71599;49.892;18.914;2023-08-24T21:57:35;98568.78;;;18.15;62.14
82035;BME280;71599;49.892;18.914;2023-08-24T22:02:36;98555.44;;;18.10;61.76
82035;BME280;71599;49.892;18.914;2023-08-24T22:07:38;98549.59;;;18.01;63.31
82035;BME280;71599;49.892;18.914;2023-08-24T22:12:39;98552.97;;;17.85;62.89
82035;BME280;71599;49.892;18.914;2023-08-24T22:17:40;98542.03;;;17.74;63.30
82035;BME280;71599;49.892;18.914;2023-08-24T22:22:43;98538.88;;;17.76;63.66
82035;BME280;71599;49.892;18.914;2023-08-24T22:27:44;98533.44;;;17.69;64.24
82035;BME280;71599;49.892;18.914;2023-08-24T22:32:45;98533.84;;;17.67;63.53
82035;BME280;71599;49.892;18.914;2023-08-24T22:37:48;98511.16;;;17.49;63.92
82035;BME280;71599;49.892;18.914;2023-08-24T22:42:49;98501.28;;;17.48;64.23
82035;BME280;71599;49.892;18.914;2023-08-24T22:47:50;98493.44;;;17.39;64.24
82035;BME280;71599;49.892;18.914;2023-08-24T22:52:53;98498.25;;;17.35;64.23
82035;BME280;71599;49.892;18.914;2023-08-24T22:57:54;98516.03;;;17.31;64.13
82035;BME280;71599;49.892;18.914;2023-08-24T23:02:55;98517.31;;;17.23;64.35
82035;BME280;71599;49.892;18.914;2023-08-24T23:07:57;98524.47;;;17.17;64.60
82035;BME280;71599;49.892;18.914;2023-08-24T23:12:58;98533.91;;;17.19;64.45
82035;BME280;71599;49.892;18.914;2023-08-24T23:17:59;98526.00;;;17.21;64.33
82035;BME280;71599;49.892;18.914;2023-08-24T23:23:02;98514.19;;;17.21;65.27
82035;BME280;71599;49.892;18.914;2023-08-24T23:28:04;98517.81;;;17.14;65.96
82035;BME280;71599;49.892;18.914;2023-08-24T23:33:05;98523.72;;;17.13;65.83
82035;BME280;71599;49.892;18.914;2023-08-24T23:38:07;98517.81;;;17.11;65.72
82035;BME280;71599;49.892;18.914;2023-08-24T23:43:08;98510.03;;;17.02;65.63
82035;BME280;71599;49.892;18.914;2023-08-24T23:48:09;98516.34;;;17.02;65.74
82035;BME280;71599;49.892;18.914;2023-08-24T23:53:12;98519.16;;;16.92;66.87
82035;BME280;71599;49.892;18.914;2023-08-24T23:58:13;98514.66;;;16.68;66.34
